Nortonville, North Dakota
Current Conditions -  °F | °C
As of 1:56 AM on Monday 24 Nov 2014 (Local Time) from KJMS Reporting Station
Overcast Overcast  
Wind Chill: -5°   Ceiling: 1900
Heat Index: 14°   Visibility: 10mi
Dew Point:   Wind: 23mph
Humidity: 74%   Direction: 330°NNW
Pressure: 29.62"   Gusts: 30mph
Location:  46.4882°N, 98.8135°W
Report Text: KJMS 240756Z AUTO 33020G26KT 10SM OVC019 M10/M14 A2962 RMK AO2 PK WND 33027/0723 SNE31 SLP053 P0000 T11001139
Loading
Personal Weather Stations






























Interactive Weather Map New forecast layout! Learn more

10-Day Weather Forecast

Advertisements
Track Severe Weather on mobile